createdAt,value
2018-09-10T00:00:38.440Z,8.50
2018-09-10T00:03:06.470Z,7.50
2018-09-10T00:05:34.520Z,7.10
2018-09-10T00:08:02.622Z,6.07
2018-09-10T00:10:30.682Z,7.83
2018-09-10T00:12:58.743Z,9.70
2018-09-10T00:15:26.836Z,9.30
2018-09-10T00:17:54.880Z,9.70
2018-09-10T00:20:22.938Z,9.93
2018-09-10T00:22:51.015Z,10.97
2018-09-10T00:25:19.085Z,10.00
2018-09-10T00:27:47.150Z,10.17
2018-09-10T00:30:15.237Z,8.47
2018-09-10T00:32:43.306Z,8.30
2018-09-10T00:35:11.350Z,8.30
2018-09-10T00:37:39.407Z,7.13
2018-09-10T00:40:07.467Z,8.23
2018-09-10T00:42:35.536Z,8.00
2018-09-10T00:45:03.598Z,8.03
2018-09-10T00:47:31.663Z,7.13
2018-09-10T00:49:59.733Z,6.70
2018-09-10T00:52:27.797Z,6.10
2018-09-10T00:54:55.861Z,6.17
2018-09-10T00:57:23.898Z,5.83
2018-09-10T00:59:51.958Z,6.30
2018-09-10T01:02:20.432Z,7.57
2018-09-10T01:04:48.473Z,7.23
2018-09-10T01:07:16.539Z,7.00
2018-09-10T01:09:44.610Z,6.60
2018-09-10T01:12:12.666Z,7.07
2018-09-10T01:14:40.724Z,7.27
2018-09-10T01:17:08.798Z,6.83
2018-09-10T01:19:36.894Z,6.20
2018-09-10T01:22:04.970Z,6.90
2018-09-10T01:24:33.012Z,7.30
2018-09-10T01:27:01.062Z,7.33
2018-09-10T01:29:29.119Z,7.07
2018-09-10T01:31:57.174Z,6.37
2018-09-10T01:34:30.853Z,6.60
2018-09-10T01:36:58.926Z,6.30
2018-09-10T01:39:27.003Z,6.70
2018-09-10T01:41:55.056Z,6.50
2018-09-10T01:44:23.114Z,6.10
2018-09-10T01:46:51.189Z,5.90
2018-09-10T01:49:19.257Z,5.17
2018-09-10T01:51:47.318Z,5.20
2018-09-10T01:54:15.362Z,4.67
2018-09-10T01:56:43.427Z,5.00
2018-09-10T01:59:11.510Z,5.47
2018-09-10T02:01:39.571Z,6.63
2018-09-10T02:04:07.613Z,7.30
2018-09-10T02:06:35.673Z,8.83
2018-09-10T02:09:04.962Z,9.50
2018-09-10T02:11:34.079Z,10.53
2018-09-10T02:14:02.242Z,10.70
2018-09-10T02:16:30.338Z,12.33
2018-09-10T02:18:58.480Z,12.03
2018-09-10T02:21:26.569Z,11.40
2018-09-10T02:23:54.693Z,10.87
2018-09-10T02:26:22.764Z,9.67
2018-09-10T02:28:50.831Z,8.80
2018-09-10T02:31:18.930Z,8.63
2018-09-10T02:33:46.986Z,8.57
2018-09-10T02:36:15.080Z,8.23
2018-09-10T02:38:43.261Z,8.43
2018-09-10T02:41:11.291Z,8.00
2018-09-10T02:43:39.337Z,7.67
2018-09-10T02:46:07.446Z,6.93
2018-09-10T02:48:35.519Z,7.30
2018-09-10T02:51:03.575Z,8.30
2018-09-10T02:53:31.661Z,8.30
2018-09-10T02:55:59.698Z,7.60
2018-09-10T02:58:27.770Z,7.20
2018-09-10T03:00:55.836Z,6.33
2018-09-10T03:03:23.928Z,5.73
2018-09-10T03:05:51.993Z,6.13
2018-09-10T03:08:20.065Z,5.60
2018-09-10T03:10:48.138Z,6.37
2018-09-10T03:13:16.202Z,8.97
2018-09-10T03:15:44.294Z,8.10
2018-09-10T03:18:12.370Z,7.47
2018-09-10T03:20:40.424Z,8.33
2018-09-10T03:23:08.518Z,8.80
2018-09-10T03:25:36.592Z,9.20
2018-09-10T03:28:04.662Z,9.60
2018-09-10T03:30:33.731Z,11.47
2018-09-10T03:33:01.811Z,11.37
2018-09-10T03:35:29.887Z,10.90
2018-09-10T03:37:58.003Z,9.97
2018-09-10T03:40:26.069Z,9.87
2018-09-10T03:42:54.166Z,10.67
2018-09-10T03:45:22.228Z,13.63
2018-09-10T03:47:50.284Z,11.67
2018-09-10T03:50:18.349Z,13.07
2018-09-10T03:52:46.419Z,15.87
2018-09-10T03:55:14.483Z,14.13
2018-09-10T03:57:42.603Z,16.63
2018-09-10T04:00:10.778Z,19.00
2018-09-10T04:02:38.891Z,18.20
2018-09-10T04:05:07.384Z,18.20
2018-09-10T04:07:35.515Z,16.87
2018-09-10T04:10:03.574Z,13.67
2018-09-10T04:12:31.640Z,10.67
2018-09-10T04:14:59.715Z,11.50
2018-09-10T04:17:27.778Z,11.30
2018-09-10T04:20:02.099Z,11.87
2018-09-10T04:22:30.236Z,12.53
2018-09-10T04:24:58.333Z,12.40
2018-09-10T04:27:26.451Z,11.93
2018-09-10T04:29:54.570Z,12.63
2018-09-10T04:32:22.724Z,13.13
2018-09-10T04:34:50.791Z,13.57
2018-09-10T04:37:18.854Z,10.80
2018-09-10T04:39:47.007Z,9.63
2018-09-10T04:42:15.103Z,8.70
2018-09-10T04:44:43.778Z,7.80
2018-09-10T04:47:11.894Z,7.60
2018-09-10T04:49:39.996Z,7.10
2018-09-10T04:52:08.031Z,8.07
2018-09-10T04:54:36.120Z,8.97
2018-09-10T04:57:04.236Z,10.10
2018-09-10T04:59:32.318Z,9.20
2018-09-10T05:02:00.368Z,8.37
2018-09-10T05:04:28.513Z,9.40
2018-09-10T05:06:56.590Z,9.93
2018-09-10T05:09:24.660Z,9.57
2018-09-10T05:11:52.730Z,8.43
2018-09-10T05:14:20.848Z,7.90
2018-09-10T05:16:48.885Z,8.40
2018-09-10T05:19:16.947Z,7.80
2018-09-10T05:21:45.020Z,7.57
2018-09-10T05:24:13.115Z,8.17
2018-09-10T05:26:41.184Z,10.73
2018-09-10T05:29:09.243Z,10.43
2018-09-10T05:31:37.311Z,8.20
2018-09-10T05:34:05.470Z,8.40
2018-09-10T05:36:33.559Z,9.33
2018-09-10T05:39:01.639Z,8.43
2018-09-10T05:41:29.735Z,8.13
2018-09-10T05:43:57.807Z,7.43
2018-09-10T05:46:25.871Z,6.83
2018-09-10T05:48:53.962Z,5.90
2018-09-10T05:51:22.073Z,5.97
2018-09-10T05:53:50.131Z,5.03
2018-09-10T05:56:18.193Z,4.30
2018-09-10T05:58:46.253Z,4.47
2018-09-10T06:01:14.358Z,4.73
2018-09-10T06:03:42.425Z,3.93
2018-09-10T06:06:10.519Z,3.17
2018-09-10T06:08:38.674Z,4.57
2018-09-10T06:11:06.753Z,4.70
2018-09-10T06:13:35.794Z,4.63
2018-09-10T06:16:03.866Z,4.93
2018-09-10T06:18:32.025Z,5.00
2018-09-10T06:21:00.200Z,4.50
2018-09-10T06:23:29.463Z,5.37
2018-09-10T06:25:57.559Z,5.47
2018-09-10T06:28:25.796Z,5.47
2018-09-10T06:30:53.857Z,5.07
2018-09-10T06:33:21.936Z,4.87
2018-09-10T06:35:50.042Z,5.53
2018-09-10T06:38:18.126Z,4.87
2018-09-10T06:40:46.211Z,4.60
2018-09-10T06:43:14.285Z,5.00
2018-09-10T06:45:42.429Z,4.83
2018-09-10T06:48:10.634Z,4.30
2018-09-10T06:50:38.705Z,4.25
2018-09-10T06:53:06.820Z,4.60
2018-09-10T06:55:34.923Z,4.75
2018-09-10T06:58:03.010Z,5.20
2018-09-10T07:00:31.075Z,4.85
2018-09-10T07:02:59.155Z,5.03
2018-09-10T07:05:27.242Z,5.28
2018-09-10T07:07:55.329Z,4.90
2018-09-10T07:10:23.591Z,4.92
2018-09-10T07:12:51.711Z,4.55
2018-09-10T07:15:19.774Z,4.72
2018-09-10T07:17:47.898Z,4.30
2018-09-10T07:20:16.007Z,4.50
2018-09-10T07:22:44.178Z,4.20
2018-09-10T07:25:12.239Z,4.45
2018-09-10T07:27:40.303Z,4.30
2018-09-10T07:30:08.411Z,4.30
2018-09-10T07:32:36.503Z,3.92
2018-09-10T07:35:04.594Z,4.00
2018-09-10T07:37:32.702Z,6.50
2018-09-10T07:40:00.795Z,4.67
2018-09-10T07:42:29.002Z,3.27
2018-09-10T07:44:57.145Z,3.45
2018-09-10T07:47:25.224Z,3.77
2018-09-10T07:49:53.316Z,3.70
2018-09-10T07:52:21.393Z,3.02
2018-09-10T07:54:49.494Z,3.02
2018-09-10T07:57:17.671Z,3.00
2018-09-10T07:59:45.900Z,2.98
2018-09-10T08:02:13.982Z,4.55
2018-09-10T08:04:42.055Z,3.08
2018-09-10T08:07:10.124Z,3.50
2018-09-10T08:09:38.244Z,3.27
2018-09-10T08:12:06.281Z,2.85
2018-09-10T08:14:34.371Z,3.60
2018-09-10T08:17:02.495Z,3.35
2018-09-10T08:19:31.570Z,3.02
2018-09-10T08:21:59.688Z,3.00
2018-09-10T08:24:27.826Z,2.92
2018-09-10T08:26:55.851Z,2.87
2018-09-10T08:29:23.929Z,2.60
2018-09-10T08:31:52.032Z,2.62
2018-09-10T08:34:20.107Z,2.50
2018-09-10T08:36:48.215Z,3.80
2018-09-10T08:39:16.311Z,2.52
2018-09-10T08:41:44.409Z,2.80
2018-09-10T08:44:12.467Z,3.87
2018-09-10T08:46:40.548Z,2.40
2018-09-10T08:49:08.643Z,2.27
2018-09-10T08:51:36.782Z,2.30
2018-09-10T08:54:05.005Z,2.62
2018-09-10T08:56:32.952Z,2.17
2018-09-10T08:59:01.022Z,2.20
2018-09-10T09:01:29.408Z,2.17
2018-09-10T09:03:57.474Z,2.20
2018-09-10T09:06:25.713Z,2.70
2018-09-10T09:08:53.735Z,2.42
2018-09-10T09:11:21.828Z,2.05
2018-09-10T09:13:50.051Z,2.25
2018-09-10T09:16:18.139Z,2.30
2018-09-10T09:18:46.244Z,2.87
2018-09-10T09:21:14.335Z,2.42
2018-09-10T09:23:42.391Z,2.12
2018-09-10T09:26:10.508Z,2.55
2018-09-10T09:28:38.690Z,2.10
2018-09-10T09:31:06.783Z,2.80
2018-09-10T09:33:34.847Z,2.70
2018-09-10T09:36:08.343Z,2.30
2018-09-10T09:38:41.997Z,1.90
2018-09-10T09:41:15.506Z,2.00
2018-09-10T09:43:48.864Z,1.90
2018-09-10T09:46:18.877Z,1.80
2018-09-10T09:48:47.107Z,1.92
2018-09-10T09:51:15.359Z,2.12
2018-09-10T09:53:43.563Z,1.85
2018-09-10T09:56:11.767Z,1.95
2018-09-10T09:58:39.863Z,2.08
2018-09-10T10:01:13.144Z,2.70
2018-09-10T10:03:46.530Z,1.98
2018-09-10T10:06:14.738Z,2.00
2018-09-10T10:08:42.880Z,2.20
2018-09-10T10:11:11.011Z,2.05
2018-09-10T10:13:39.066Z,2.00
2018-09-10T10:16:07.173Z,2.15
2018-09-10T10:18:35.382Z,2.02
2018-09-10T10:21:03.465Z,1.80
2018-09-10T10:23:31.574Z,1.90
2018-09-10T10:25:59.733Z,1.90
2018-09-10T10:28:27.859Z,4.87
2018-09-10T10:30:55.968Z,2.30
2018-09-10T10:33:24.051Z,1.92
2018-09-10T10:35:52.190Z,1.92
2018-09-10T10:38:20.342Z,1.85
2018-09-10T10:40:48.494Z,2.58
2018-09-10T10:43:16.619Z,1.95
2018-09-10T10:45:44.730Z,1.52
2018-09-10T10:48:12.942Z,1.40
2018-09-10T10:50:41.048Z,1.90
2018-09-10T10:53:09.151Z,1.70
2018-09-10T10:55:37.263Z,1.52
2018-09-10T10:58:05.390Z,1.42
2018-09-10T11:00:33.558Z,1.80
2018-09-10T11:03:01.648Z,1.47
2018-09-10T11:05:29.819Z,1.70
2018-09-10T11:07:57.899Z,1.67
2018-09-10T11:10:25.995Z,2.30
2018-09-10T11:12:54.063Z,1.90
2018-09-10T11:15:22.596Z,1.85
2018-09-10T11:17:50.782Z,1.75
2018-09-10T11:20:18.951Z,1.80
2018-09-10T11:22:47.087Z,1.60
2018-09-10T11:25:15.220Z,1.70
2018-09-10T11:27:43.497Z,1.77
2018-09-10T11:30:11.519Z,1.80
2018-09-10T11:32:40.037Z,3.22
2018-09-10T11:35:08.140Z,1.67
2018-09-10T11:37:36.220Z,2.42
2018-09-10T11:40:04.359Z,2.05
2018-09-10T11:42:32.453Z,1.72
2018-09-10T11:45:00.507Z,1.90
2018-09-10T11:47:28.672Z,1.80
2018-09-10T11:49:56.744Z,1.72
2018-09-10T11:52:24.936Z,2.17
2018-09-10T11:54:53.050Z,2.00
2018-09-10T11:57:21.139Z,1.72
2018-09-10T11:59:49.235Z,1.72
2018-09-10T12:02:17.315Z,1.87
2018-09-10T12:04:45.462Z,2.00
2018-09-10T12:07:13.595Z,1.60
2018-09-10T12:09:42.802Z,2.20
2018-09-10T12:12:10.895Z,1.60
2018-09-10T12:14:39.288Z,2.60
2018-09-10T12:17:07.394Z,4.35
2018-09-10T12:19:35.494Z,1.70
2018-09-10T12:22:03.585Z,1.75
2018-09-10T12:24:31.711Z,1.72
2018-09-10T12:26:59.880Z,1.80
2018-09-10T12:29:27.984Z,2.25
2018-09-10T12:31:56.088Z,1.87
2018-09-10T12:34:24.212Z,1.77
2018-09-10T12:36:52.327Z,2.00
2018-09-10T12:39:20.417Z,2.10
2018-09-10T12:41:48.526Z,2.17
2018-09-10T12:44:16.662Z,1.90
2018-09-10T12:46:44.799Z,1.98
2018-09-10T12:49:13.015Z,1.90
2018-09-10T12:51:41.117Z,1.87
2018-09-10T12:54:09.216Z,2.30
2018-09-10T12:56:37.352Z,1.92
2018-09-10T12:59:05.453Z,1.90
2018-09-10T13:01:33.706Z,1.85
2018-09-10T13:04:01.861Z,1.50
2018-09-10T13:06:29.923Z,2.17
2018-09-10T13:08:58.080Z,2.05
2018-09-10T13:11:26.237Z,1.98
2018-09-10T13:13:54.358Z,1.90
2018-09-10T13:16:22.548Z,1.55
2018-09-10T13:18:50.633Z,2.00
2018-09-10T13:21:18.791Z,2.17
2018-09-10T13:23:46.900Z,1.77
2018-09-10T13:26:14.987Z,1.70
2018-09-10T13:28:43.061Z,1.90
2018-09-10T13:31:11.156Z,1.85
2018-09-10T13:33:39.267Z,1.80
2018-09-10T13:36:07.340Z,2.15
2018-09-10T13:38:35.501Z,1.87
2018-09-10T13:41:03.601Z,1.87
2018-09-10T13:43:31.732Z,1.87
2018-09-10T13:45:59.856Z,1.70
2018-09-10T13:48:27.946Z,1.80
2018-09-10T13:50:57.114Z,2.00
2018-09-10T13:53:25.221Z,2.00
2018-09-10T13:55:53.318Z,1.92
2018-09-10T13:58:21.425Z,2.15
2018-09-10T14:00:49.585Z,2.00
2018-09-10T14:03:17.643Z,2.05
2018-09-10T14:05:45.757Z,2.02
2018-09-10T14:08:13.876Z,2.10
2018-09-10T14:10:42.022Z,2.08
2018-09-10T14:13:10.059Z,1.80
2018-09-10T14:15:38.249Z,1.87
2018-09-10T14:18:06.391Z,1.80
2018-09-10T14:20:34.532Z,2.10
2018-09-10T14:23:02.726Z,1.62
2018-09-10T14:25:30.804Z,1.85
2018-09-10T14:27:58.912Z,1.92
2018-09-10T14:30:27.037Z,1.85
2018-09-10T14:32:55.123Z,1.80
2018-09-10T14:35:23.224Z,1.77
2018-09-10T14:37:51.295Z,1.75
2018-09-10T14:40:19.396Z,1.70
2018-09-10T14:42:47.555Z,1.82
2018-09-10T14:45:15.651Z,1.90
2018-09-10T14:47:43.812Z,1.80
2018-09-10T14:50:11.932Z,1.77
2018-09-10T14:52:40.074Z,1.82
2018-09-10T14:55:08.168Z,1.70
2018-09-10T14:57:36.488Z,1.60
2018-09-10T15:00:04.906Z,1.80
2018-09-10T15:02:33.010Z,1.60
2018-09-10T15:05:01.095Z,2.12
2018-09-10T15:07:29.395Z,1.87
2018-09-10T15:09:57.525Z,1.52
2018-09-10T15:12:25.650Z,2.08
2018-09-10T15:14:53.803Z,1.90
2018-09-10T15:17:21.858Z,1.90
2018-09-10T15:19:49.980Z,2.20
2018-09-10T15:22:18.120Z,2.20
2018-09-10T15:24:46.227Z,2.17
2018-09-10T15:27:14.308Z,2.22
2018-09-10T15:29:42.462Z,2.33
2018-09-10T15:32:10.559Z,2.42
2018-09-10T15:34:38.699Z,2.50
2018-09-10T15:37:06.808Z,2.40
2018-09-10T15:39:34.914Z,2.35
2018-09-10T15:42:03.051Z,3.15
2018-09-10T15:44:31.114Z,2.72
2018-09-10T15:46:59.348Z,2.50
2018-09-10T15:49:27.464Z,2.37
2018-09-10T15:51:55.609Z,2.10
2018-09-10T15:54:23.822Z,2.20
2018-09-10T15:56:51.931Z,2.27
2018-09-10T15:59:20.006Z,2.12
2018-09-10T16:01:48.091Z,2.20
2018-09-10T16:04:16.226Z,2.50
2018-09-10T16:06:44.442Z,1.92
2018-09-10T16:09:12.851Z,2.20
2018-09-10T16:11:40.990Z,2.40
2018-09-10T16:14:09.097Z,2.40
2018-09-10T16:16:37.182Z,2.40
2018-09-10T16:19:05.279Z,2.50
2018-09-10T16:21:34.447Z,2.60
2018-09-10T16:24:02.627Z,2.87
2018-09-10T16:26:30.702Z,2.30
2018-09-10T16:28:58.788Z,2.95
2018-09-10T16:31:26.941Z,2.75
2018-09-10T16:33:55.073Z,2.55
2018-09-10T16:36:23.118Z,2.50
2018-09-10T16:38:51.218Z,2.67
2018-09-10T16:41:19.453Z,2.40
2018-09-10T16:43:47.540Z,2.35
2018-09-10T16:46:15.674Z,2.70
2018-09-10T16:48:43.875Z,2.80
2018-09-10T16:51:12.034Z,2.80
2018-09-10T16:53:40.135Z,2.85
2018-09-10T16:56:08.220Z,2.85
2018-09-10T16:58:36.303Z,2.40
2018-09-10T17:01:04.394Z,2.55
2018-09-10T17:03:32.528Z,2.55
2018-09-10T17:06:00.643Z,2.60
2018-09-10T17:08:28.788Z,2.40
2018-09-10T17:10:56.929Z,2.85
2018-09-10T17:13:25.041Z,2.40
2018-09-10T17:15:53.270Z,2.50
2018-09-10T17:18:21.377Z,2.37
2018-09-10T17:20:49.533Z,2.60
2018-09-10T17:23:17.697Z,2.40
2018-09-10T17:25:49.675Z,2.63
2018-09-10T17:28:17.768Z,2.50
2018-09-10T17:30:45.871Z,2.45
2018-09-10T17:33:14.046Z,2.57
2018-09-10T17:35:43.228Z,2.50
2018-09-10T17:38:11.526Z,2.60
2018-09-10T17:40:39.599Z,4.30
2018-09-10T17:43:07.699Z,8.40
2018-09-10T17:45:35.782Z,5.93
2018-09-10T17:48:04.094Z,6.57
2018-09-10T17:50:32.522Z,7.87
2018-09-10T17:53:00.630Z,6.77
2018-09-10T17:55:28.774Z,3.90
2018-09-10T17:57:56.878Z,3.30
2018-09-10T18:00:24.989Z,2.87
2018-09-10T18:02:53.174Z,3.20
2018-09-10T18:05:21.510Z,2.90
2018-09-10T18:07:49.615Z,4.00
2018-09-10T18:10:17.942Z,3.40
2018-09-10T18:12:46.041Z,3.53
2018-09-10T18:15:14.214Z,3.03
2018-09-10T18:17:42.597Z,3.13
2018-09-10T18:20:10.666Z,3.47
2018-09-10T18:22:38.749Z,3.40
2018-09-10T18:25:06.861Z,4.50
2018-09-10T18:27:35.009Z,4.17
2018-09-10T18:30:03.101Z,4.43
2018-09-10T18:32:31.161Z,4.50
2018-09-10T18:34:59.281Z,3.70
2018-09-10T18:37:27.354Z,4.00
2018-09-10T18:39:55.513Z,4.33
2018-09-10T18:42:23.695Z,4.00
2018-09-10T18:44:51.792Z,3.90
2018-09-10T18:47:19.847Z,3.53
2018-09-10T18:49:47.930Z,3.50
2018-09-10T18:52:16.577Z,4.70
2018-09-10T18:54:44.714Z,4.47
2018-09-10T18:57:12.823Z,3.83
2018-09-10T18:59:40.908Z,4.40
2018-09-10T19:02:08.970Z,3.80
2018-09-10T19:04:37.014Z,4.00
2018-09-10T19:07:05.088Z,4.33
2018-09-10T19:09:33.202Z,3.60
2018-09-10T19:12:01.297Z,3.90
2018-09-10T19:14:29.368Z,3.90
2018-09-10T19:16:57.430Z,4.20
2018-09-10T19:19:25.474Z,4.37
2018-09-10T19:21:53.630Z,3.93
2018-09-10T19:24:21.742Z,4.30
2018-09-10T19:26:49.802Z,3.60
2018-09-10T19:29:17.967Z,3.70
2018-09-10T19:31:46.046Z,3.90
2018-09-10T19:34:14.394Z,4.30
2018-09-10T19:36:42.837Z,4.30
2018-09-10T19:39:11.794Z,3.50
2018-09-10T19:41:40.034Z,3.60
2018-09-10T19:44:08.228Z,3.53
2018-09-10T19:46:36.251Z,4.50
2018-09-10T19:49:04.342Z,4.40
2018-09-10T19:51:32.644Z,3.77
2018-09-10T19:54:00.938Z,4.13
2018-09-10T19:56:28.983Z,4.33
2018-09-10T19:58:57.121Z,3.87
2018-09-10T20:01:25.529Z,4.20
2018-09-10T20:03:53.750Z,3.97
2018-09-10T20:06:21.835Z,4.00
2018-09-10T20:08:49.951Z,4.83
2018-09-10T20:14:31.870Z,4.37
2018-09-10T20:17:00.759Z,4.43
2018-09-10T20:19:29.459Z,4.70
2018-09-10T20:21:57.543Z,4.57
2018-09-10T20:24:25.663Z,4.80
2018-09-10T20:26:53.718Z,4.73
2018-09-10T20:29:21.867Z,4.23
2018-09-10T20:31:49.942Z,4.20
2018-09-10T20:34:18.126Z,3.87
2018-09-10T20:36:46.244Z,4.50
2018-09-10T20:39:14.366Z,4.37
2018-09-10T20:41:42.594Z,4.33
2018-09-10T20:44:11.188Z,4.57
2018-09-10T20:46:39.546Z,4.30
2018-09-10T20:49:08.043Z,4.13
2018-09-10T20:51:36.138Z,4.10
2018-09-10T20:54:04.195Z,4.50
2018-09-10T20:56:32.306Z,4.83
2018-09-10T20:59:00.369Z,4.23
2018-09-10T21:01:28.446Z,3.87
2018-09-10T21:03:56.523Z,4.27
2018-09-10T21:06:24.582Z,4.30
2018-09-10T21:08:52.673Z,4.60
2018-09-10T21:11:20.748Z,4.43
2018-09-10T21:13:48.838Z,4.93
2018-09-10T21:16:16.910Z,4.23
2018-09-10T21:18:45.039Z,4.83
2018-09-10T21:21:13.189Z,4.60
2018-09-10T21:23:41.310Z,5.13
2018-09-10T21:26:09.374Z,5.13
2018-09-10T21:28:37.458Z,4.87
2018-09-10T21:31:05.634Z,4.30
2018-09-10T21:33:33.717Z,5.10
2018-09-10T21:36:01.782Z,4.93
2018-09-10T21:38:29.875Z,4.93
2018-09-10T21:40:57.989Z,4.73
2018-09-10T21:43:26.124Z,4.67
2018-09-10T21:45:54.194Z,5.20
2018-09-10T21:48:22.319Z,5.30
2018-09-10T21:50:50.391Z,5.07
2018-09-10T21:53:18.498Z,4.00
2018-09-10T21:55:46.558Z,4.83
2018-09-10T21:58:14.628Z,4.90
2018-09-10T22:00:48.881Z,6.80
2018-09-10T22:03:17.071Z,5.93
2018-09-10T22:05:45.126Z,5.53
2018-09-10T22:08:13.291Z,5.67
2018-09-10T22:10:41.408Z,5.70
2018-09-10T22:13:09.502Z,4.40
2018-09-10T22:15:37.593Z,4.70
2018-09-10T22:18:05.722Z,4.43
2018-09-10T22:20:34.842Z,4.17
2018-09-10T22:23:02.969Z,4.30
2018-09-10T22:25:31.076Z,4.10
2018-09-10T22:27:59.594Z,4.13
2018-09-10T22:30:27.665Z,4.13
2018-09-10T22:32:55.771Z,3.77
2018-09-10T22:35:23.899Z,4.00
2018-09-10T22:37:52.415Z,3.60
2018-09-10T22:40:20.530Z,3.70
2018-09-10T22:42:48.580Z,3.27
2018-09-10T22:45:16.711Z,3.60
2018-09-10T22:47:44.806Z,3.57
2018-09-10T22:50:12.955Z,3.60
2018-09-10T22:52:41.147Z,3.37
2018-09-10T22:55:09.230Z,3.00
2018-09-10T22:57:37.293Z,3.20
2018-09-10T23:00:07.119Z,3.33
2018-09-10T23:02:35.195Z,3.80
2018-09-10T23:05:03.449Z,3.10
2018-09-10T23:07:31.618Z,3.43
2018-09-10T23:09:59.677Z,3.13
2018-09-10T23:12:27.747Z,4.03
2018-09-10T23:14:55.812Z,3.77
2018-09-10T23:17:23.982Z,3.60
2018-09-10T23:19:52.078Z,3.37
2018-09-10T23:22:20.266Z,3.50
2018-09-10T23:24:48.342Z,3.23
2018-09-10T23:27:16.408Z,2.87
2018-09-10T23:29:44.495Z,3.40
2018-09-10T23:32:12.606Z,3.47
2018-09-10T23:34:40.690Z,3.10
2018-09-10T23:37:08.756Z,3.13
2018-09-10T23:39:38.882Z,3.30
2018-09-10T23:42:06.990Z,3.10
2018-09-10T23:44:35.065Z,3.67
2018-09-10T23:47:03.172Z,3.27
2018-09-10T23:49:31.300Z,3.20
2018-09-10T23:51:59.383Z,3.10
2018-09-10T23:54:27.447Z,3.30
2018-09-10T23:56:55.546Z,2.93
